Time;durP1;ratioP1;P1;durP2;ratioP2;P2;SDS_P1;SDS_P2;PMS_P1;PMS_P2;Temp;Humidity;BMP_temperature;BMP_pressure;BME280_temperature;BME280_humidity;BME280_pressure;Samples;Min_cycle;Max_cycle;Signal;HPM_P1;HPM_P2
2021/11/05 00:02:09;;;;;;;4.28;3.00;;;6.30;99.90;;;;;;4973855;28;20041;-61
2021/11/05 00:04:34;;;;;;;4.85;3.65;;;6.30;99.90;;;;;;4977165;28;20029;-61
2021/11/05 00:07:00;;;;;;;5.72;3.28;;;6.30;99.90;;;;;;4970031;28;20569;-61
2021/11/05 00:09:26;;;;;;;4.63;3.58;;;6.30;99.90;;;;;;4974154;28;20570;-61
2021/11/05 00:11:52;;;;;;;4.38;3.15;;;6.30;99.90;;;;;;4975383;28;20114;-61
2021/11/05 00:14:18;;;;;;;4.47;3.28;;;6.30;99.90;;;;;;4968013;28;20154;-61
2021/11/05 00:16:44;;;;;;;4.90;3.47;;;6.20;99.90;;;;;;4972605;28;20023;-61
2021/11/05 00:19:09;;;;;;;5.30;2.90;;;6.20;99.90;;;;;;4973996;28;20067;-61
2021/11/05 00:21:35;;;;;;;3.90;3.03;;;6.20;99.90;;;;;;4971698;28;20479;-61
2021/11/05 00:24:03;;;;;;;7.05;3.00;;;6.20;99.90;;;;;;4971759;28;20034;-61
2021/11/05 00:26:29;;;;;;;3.10;2.53;;;6.20;99.90;;;;;;4968501;28;20479;-61
2021/11/05 00:28:54;;;;;;;4.22;3.20;;;6.20;99.90;;;;;;4962064;28;20122;-61
2021/11/05 00:31:20;;;;;;;4.80;2.70;;;6.20;99.90;;;;;;4970447;28;20026;-61
2021/11/05 00:33:45;;;;;;;4.72;3.40;;;6.10;99.90;;;;;;4973678;28;20038;-61
2021/11/05 00:36:14;;;;;;;3.33;2.53;;;6.10;99.90;;;;;;4969537;28;20026;-63
2021/11/05 00:38:43;;;;;;;4.43;2.90;;;6.10;99.90;;;;;;4971465;28;20433;-61
2021/11/05 00:41:10;;;;;;;3.22;2.28;;;6.10;99.90;;;;;;4968658;28;20114;-61
2021/11/05 00:43:36;;;;;;;4.28;2.53;;;6.00;99.90;;;;;;4970526;28;20031;-61
2021/11/05 00:46:01;;;;;;;4.75;2.85;;;6.00;99.90;;;;;;4973957;28;20101;-61
2021/11/05 00:48:27;;;;;;;5.68;3.05;;;6.00;99.90;;;;;;4970178;28;20023;-61
2021/11/05 00:50:52;;;;;;;3.67;2.58;;;6.10;99.90;;;;;;4962332;28;20026;-61
2021/11/05 00:53:18;;;;;;;4.25;3.38;;;6.10;99.90;;;;;;4974390;28;20617;-61
2021/11/05 00:55:43;;;;;;;4.25;3.08;;;6.10;99.90;;;;;;4975172;28;20471;-61
2021/11/05 00:58:09;;;;;;;4.38;3.05;;;6.10;99.90;;;;;;4977720;28;20422;-63
2021/11/05 01:00:35;;;;;;;4.70;3.45;;;6.00;99.90;;;;;;4978221;28;20499;-63
2021/11/05 01:03:01;;;;;;;4.80;3.00;;;6.00;99.90;;;;;;4973079;28;20023;-63
2021/11/05 01:05:27;;;;;;;5.90;3.75;;;6.00;99.90;;;;;;4978613;28;20026;-61
2021/11/05 01:07:52;;;;;;;4.90;3.40;;;6.00;99.90;;;;;;4975651;28;20130;-61
2021/11/05 01:10:18;;;;;;;5.40;3.78;;;6.00;99.90;;;;;;4975151;28;20117;-61
2021/11/05 01:12:44;;;;;;;7.53;4.32;;;6.00;99.90;;;;;;4976024;28;20372;-61
2021/11/05 01:15:11;;;;;;;6.35;4.55;;;6.00;99.90;;;;;;4976857;28;20031;-61
2021/11/05 01:17:38;;;;;;;6.18;4.20;;;6.00;99.90;;;;;;4975276;28;20034;-61
2021/11/05 01:20:06;;;;;;;5.13;3.70;;;6.00;99.90;;;;;;4973271;28;20387;-61
2021/11/05 01:22:32;;;;;;;6.68;4.78;;;6.00;99.90;;;;;;4974465;28;20165;-61
2021/11/05 01:24:57;;;;;;;4.68;3.35;;;5.90;99.90;;;;;;4974327;28;20121;-61
2021/11/05 01:27:23;;;;;;;5.47;3.70;;;5.90;99.90;;;;;;4972021;28;20523;-61
2021/11/05 01:29:50;;;;;;;5.45;3.90;;;5.90;99.90;;;;;;4977960;28;20062;-61
2021/11/05 01:32:15;;;;;;;6.53;3.38;;;5.90;99.90;;;;;;4980885;28;20566;-61
2021/11/05 01:34:41;;;;;;;4.05;3.08;;;5.90;99.90;;;;;;4971745;28;20058;-61
2021/11/05 01:37:07;;;;;;;3.83;3.05;;;5.90;99.90;;;;;;4978307;28;20080;-61
2021/11/05 01:39:32;;;;;;;4.13;2.47;;;5.80;99.90;;;;;;4978144;28;20069;-61
2021/11/05 01:41:58;;;;;;;3.63;2.58;;;5.80;99.90;;;;;;4961966;28;20030;-62
2021/11/05 01:44:24;;;;;;;4.65;2.70;;;5.80;99.90;;;;;;4978893;28;20035;-61
2021/11/05 01:46:51;;;;;;;2.92;2.03;;;5.80;99.90;;;;;;4979228;28;20042;-61
2021/11/05 01:49:16;;;;;;;2.90;2.13;;;5.70;99.90;;;;;;4976519;28;20113;-61
2021/11/05 01:51:42;;;;;;;6.22;2.40;;;5.70;99.90;;;;;;4977100;28;20110;-61
2021/11/05 01:54:10;;;;;;;3.35;2.25;;;5.70;99.90;;;;;;4979179;28;20031;-61
2021/11/05 01:56:37;;;;;;;2.95;2.20;;;5.70;99.90;;;;;;4964755;28;20030;-61
2021/11/05 01:59:03;;;;;;;2.80;1.95;;;5.70;99.90;;;;;;4976505;28;20022;-61
2021/11/05 02:01:29;;;;;;;10.23;2.00;;;5.70;99.90;;;;;;4974766;28;20097;-61
2021/11/05 02:03:54;;;;;;;2.42;1.70;;;5.60;99.90;;;;;;4962126;28;20042;-61
2021/11/05 02:06:21;;;;;;;3.10;1.90;;;5.60;99.90;;;;;;4977940;28;20026;-61
2021/11/05 02:08:51;;;;;;;2.22;1.33;;;5.60;99.90;;;;;;4977068;28;20058;-61
2021/11/05 02:11:19;;;;;;;2.38;1.60;;;5.60;99.90;;;;;;4976223;28;20105;-61
2021/11/05 02:13:46;;;;;;;3.13;1.90;;;5.60;99.90;;;;;;4979096;28;20506;-61
2021/11/05 02:16:13;;;;;;;3.00;1.85;;;5.60;99.90;;;;;;4979313;28;20026;-61
2021/11/05 02:18:40;;;;;;;2.53;2.05;;;5.60;99.90;;;;;;4978822;28;20415;-61
2021/11/05 02:21:11;;;;;;;2.47;1.55;;;5.50;99.90;;;;;;4976705;28;20026;-61
2021/11/05 02:23:36;;;;;;;2.63;1.90;;;5.50;99.90;;;;;;4974567;28;20110;-61
2021/11/05 02:26:03;;;;;;;2.53;1.77;;;5.50;99.90;;;;;;4976821;28;20110;-61
2021/11/05 02:28:35;;;;;;;5.55;2.42;;;5.50;99.90;;;;;;4981340;28;20356;-61
2021/11/05 02:31:01;;;;;;;4.10;2.17;;;5.50;99.90;;;;;;4983630;28;20105;-61
2021/11/05 02:33:26;;;;;;;4.25;2.10;;;5.50;99.90;;;;;;4977176;28;20549;-61
2021/11/05 02:35:52;;;;;;;3.13;2.42;;;5.50;99.90;;;;;;4971846;28;20042;-61
2021/11/05 02:38:19;;;;;;;3.65;2.30;;;5.50;99.90;;;;;;4992169;28;20015;-61
2021/11/05 02:40:44;;;;;;;3.10;2.08;;;5.50;99.90;;;;;;4979617;28;20027;-61
2021/11/05 02:43:10;;;;;;;3.60;2.70;;;5.50;99.90;;;;;;4975868;28;20105;-61
2021/11/05 02:45:35;;;;;;;4.72;2.30;;;5.50;99.90;;;;;;4982489;28;20031;-62
2021/11/05 02:48:03;;;;;;;3.50;2.15;;;5.50;99.90;;;;;;4962937;28;20077;-61
2021/11/05 02:50:28;;;;;;;2.95;2.05;;;5.50;99.90;;;;;;4978434;28;20467;-61
2021/11/05 02:52:54;;;;;;;3.25;2.22;;;5.50;99.90;;;;;;4973690;28;20507;-61
2021/11/05 02:55:21;;;;;;;3.28;2.35;;;5.40;99.90;;;;;;4963534;28;20042;-61
2021/11/05 02:57:47;;;;;;;1.98;1.40;;;5.50;99.90;;;;;;4973140;28;20105;-61
2021/11/05 03:00:15;;;;;;;4.15;2.40;;;5.40;99.90;;;;;;4971471;28;20509;-61
2021/11/05 03:02:40;;;;;;;3.92;2.28;;;5.40;99.90;;;;;;4964166;28;20376;-61
2021/11/05 03:05:06;;;;;;;3.53;2.38;;;5.40;99.90;;;;;;4973292;28;20034;-61
2021/11/05 03:07:31;;;;;;;2.50;1.92;;;5.40;99.90;;;;;;4967957;28;20050;-61
2021/11/05 03:09:57;;;;;;;4.32;2.65;;;5.40;99.90;;;;;;4969980;28;20022;-61
2021/11/05 03:12:22;;;;;;;3.83;2.30;;;5.40;99.90;;;;;;4979729;28;20034;-61
2021/11/05 03:14:48;;;;;;;3.70;2.60;;;5.40;99.90;;;;;;4974304;28;20030;-61
2021/11/05 03:17:34;;;;;;;3.78;2.17;;;5.40;99.90;;;;;;4971902;28;20027;-61
2021/11/05 03:20:00;;;;;;;4.82;2.03;;;5.40;99.90;;;;;;4967424;28;20041;-60
2021/11/05 03:22:27;;;;;;;3.47;2.30;;;5.40;99.90;;;;;;4993754;28;20395;-61
2021/11/05 03:24:52;;;;;;;4.38;2.55;;;5.40;99.90;;;;;;4985071;28;20398;-61
2021/11/05 03:27:19;;;;;;;3.38;2.00;;;5.40;99.90;;;;;;4972864;28;20562;-61
2021/11/05 03:29:44;;;;;;;9.35;1.80;;;5.40;99.90;;;;;;4977140;28;20026;-61
2021/11/05 03:32:10;;;;;;;5.85;1.80;;;5.40;99.90;;;;;;4972455;28;20030;-61
2021/11/05 03:34:36;;;;;;;2.22;1.58;;;5.30;99.90;;;;;;4973589;28;20027;-61
2021/11/05 03:37:02;;;;;;;2.38;1.30;;;5.30;99.90;;;;;;4972185;28;20038;-61
2021/11/05 03:39:28;;;;;;;2.28;1.75;;;5.30;99.90;;;;;;4981725;28;20026;-61
2021/11/05 03:41:54;;;;;;;3.00;1.60;;;5.30;99.90;;;;;;4969796;28;20034;-61
2021/11/05 03:44:19;;;;;;;2.05;1.63;;;5.30;99.90;;;;;;4975214;28;21207;-60
2021/11/05 03:46:45;;;;;;;2.78;1.90;;;5.30;99.90;;;;;;4959795;28;20027;-60
2021/11/05 03:49:11;;;;;;;2.78;2.05;;;5.30;99.90;;;;;;4970378;28;20394;-61
2021/11/05 03:51:36;;;;;;;4.18;2.13;;;5.40;99.90;;;;;;4975359;28;20031;-61
2021/11/05 03:54:02;;;;;;;3.00;2.13;;;5.30;99.90;;;;;;4974583;28;20030;-61
2021/11/05 03:56:28;;;;;;;3.40;2.13;;;5.30;99.90;;;;;;4965596;28;20026;-61
2021/11/05 03:58:54;;;;;;;3.05;2.22;;;5.30;99.90;;;;;;4971452;28;20486;-61
2021/11/05 04:01:20;;;;;;;3.17;2.03;;;5.40;99.90;;;;;;4978626;28;20049;-61
2021/11/05 04:03:48;;;;;;;2.15;1.67;;;5.30;99.90;;;;;;4972229;28;20531;-60
2021/11/05 04:06:16;;;;;;;2.22;1.33;;;5.30;99.90;;;;;;4975651;28;20070;-62
2021/11/05 04:08:42;;;;;;;1.92;1.10;;;5.30;99.90;;;;;;4958046;28;20031;-61
2021/11/05 04:11:08;;;;;;;5.63;1.40;;;5.30;99.90;;;;;;4975572;28;20332;-61
2021/11/05 04:13:33;;;;;;;3.42;1.42;;;5.30;99.90;;;;;;4977950;28;20050;-61
2021/11/05 04:15:59;;;;;;;15.60;1.27;;;5.20;99.90;;;;;;4975973;28;20031;-61
2021/11/05 04:18:25;;;;;;;4.43;1.15;;;5.20;99.90;;;;;;4978600;28;20031;-61
2021/11/05 04:20:50;;;;;;;1.65;1.08;;;5.20;99.90;;;;;;4974118;28;20038;-61
2021/11/05 04:23:17;;;;;;;4.93;1.45;;;5.20;99.90;;;;;;4963648;28;20406;-61
2021/11/05 04:25:44;;;;;;;4.18;1.25;;;5.20;99.90;;;;;;4972287;28;20030;-61
2021/11/05 04:28:09;;;;;;;2.50;1.50;;;5.20;99.90;;;;;;4975958;28;20027;-61
2021/11/05 04:30:36;;;;;;;2.40;1.63;;;5.20;99.90;;;;;;4974458;28;20042;-61
2021/11/05 04:33:01;;;;;;;3.53;1.73;;;5.20;99.90;;;;;;4971545;28;20084;-61
2021/11/05 04:35:28;;;;;;;3.15;1.70;;;5.20;99.90;;;;;;4972387;28;20035;-61
2021/11/05 04:37:54;;;;;;;3.78;1.58;;;5.20;99.90;;;;;;4976570;28;20098;-61
2021/11/05 04:40:19;;;;;;;5.40;2.13;;;5.20;99.90;;;;;;4972870;28;20101;-61
2021/11/05 04:42:45;;;;;;;3.85;1.50;;;5.20;99.90;;;;;;4975057;28;20031;-61
2021/11/05 04:45:10;;;;;;;3.25;1.35;;;5.20;99.90;;;;;;4976563;28;20399;-61
2021/11/05 04:47:37;;;;;;;2.50;1.75;;;5.10;99.90;;;;;;4963548;28;20501;-61
2021/11/05 04:50:03;;;;;;;3.67;1.85;;;5.20;99.90;;;;;;4973013;28;20078;-61
2021/11/05 04:52:29;;;;;;;1.90;1.40;;;5.20;99.90;;;;;;4978732;28;20114;-61
2021/11/05 04:54:55;;;;;;;2.95;1.50;;;5.20;99.90;;;;;;4973438;28;20102;-61
2021/11/05 04:57:20;;;;;;;2.08;1.50;;;5.10;99.90;;;;;;4972496;28;20039;-60
2021/11/05 04:59:46;;;;;;;2.53;1.48;;;5.10;99.90;;;;;;4965476;28;20050;-61
2021/11/05 05:02:12;;;;;;;1.50;1.08;;;5.10;99.90;;;;;;4968764;28;20394;-61
2021/11/05 05:04:37;;;;;;;1.85;1.27;;;5.10;99.90;;;;;;4979109;28;20049;-61
2021/11/05 05:07:03;;;;;;;3.33;1.23;;;5.10;99.90;;;;;;4978527;28;20034;-61
2021/11/05 05:09:28;;;;;;;2.30;1.20;;;5.10;99.90;;;;;;4977956;28;20038;-61
2021/11/05 05:11:54;;;;;;;2.33;1.35;;;5.10;99.90;;;;;;4974807;28;20035;-61
2021/11/05 05:14:20;;;;;;;3.10;1.20;;;5.10;99.90;;;;;;4976842;28;20054;-61
2021/11/05 05:16:45;;;;;;;2.47;1.17;;;5.10;99.90;;;;;;4965348;28;20038;-61
2021/11/05 05:19:11;;;;;;;4.35;1.02;;;5.10;99.90;;;;;;4978422;28;20023;-61
2021/11/05 05:21:36;;;;;;;2.15;1.48;;;5.00;99.90;;;;;;4977528;28;20518;-61
2021/11/05 05:24:03;;;;;;;15.00;1.35;;;5.00;99.90;;;;;;4977934;28;20486;-61
2021/11/05 05:26:29;;;;;;;13.85;1.60;;;5.00;99.90;;;;;;4976229;28;20571;-61
2021/11/05 05:28:54;;;;;;;2.55;1.13;;;5.00;99.90;;;;;;4978010;28;20035;-61
2021/11/05 05:31:20;;;;;;;2.53;1.48;;;5.00;99.90;;;;;;4976574;28;20578;-61
2021/11/05 05:33:45;;;;;;;1.92;1.20;;;5.00;99.90;;;;;;4977614;28;20041;-61
2021/11/05 05:36:11;;;;;;;2.10;1.30;;;5.00;99.90;;;;;;4978132;28;20023;-61
2021/11/05 05:38:37;;;;;;;2.72;1.50;;;5.00;99.90;;;;;;4979293;28;20026;-61
2021/11/05 05:41:03;;;;;;;4.75;1.23;;;5.00;99.90;;;;;;4964195;28;20098;-61
2021/11/05 05:43:50;;;;;;;2.20;1.40;;;5.00;99.90;;;;;;4976650;28;20054;-60
2021/11/05 05:46:16;;;;;;;1.77;1.38;;;5.00;99.90;;;;;;4978596;28;20383;-61
2021/11/05 05:48:41;;;;;;;8.73;1.80;;;4.90;99.90;;;;;;4976140;28;20482;-60
2021/11/05 05:51:07;;;;;;;6.75;2.05;;;5.00;99.90;;;;;;4979326;28;20062;-61
2021/11/05 05:53:32;;;;;;;18.83;1.77;;;5.00;99.90;;;;;;4976094;28;20113;-61
2021/11/05 05:55:58;;;;;;;15.88;1.90;;;4.90;99.90;;;;;;4977888;28;20487;-61
2021/11/05 05:58:24;;;;;;;15.75;1.98;;;4.90;99.90;;;;;;4962737;28;20474;-61
2021/11/05 06:00:50;;;;;;;19.52;2.42;;;4.90;99.90;;;;;;4977569;28;20045;-61
2021/11/05 06:03:16;;;;;;;9.27;2.22;;;4.90;99.90;;;;;;4977168;28;20491;-61
2021/11/05 06:05:41;;;;;;;19.77;1.90;;;4.90;99.90;;;;;;4974358;28;20049;-61
2021/11/05 06:08:07;;;;;;;11.20;2.28;;;4.90;99.90;;;;;;4975941;28;20034;-61
2021/11/05 06:10:33;;;;;;;7.22;2.20;;;4.90;99.90;;;;;;4967029;28;20026;-61
2021/11/05 06:12:59;;;;;;;6.90;2.30;;;4.90;99.90;;;;;;4975981;28;20027;-61
2021/11/05 06:15:24;;;;;;;3.22;1.92;;;4.90;99.90;;;;;;4959081;28;20605;-61
2021/11/05 06:18:23;;;;;;;;;;;;;;;;;;;;;
2021/11/05 06:20:39;;;;;;;3.38;1.30;;;4.90;99.90;;;;;;4969315;28;20521;-60
2021/11/05 06:23:04;;;;;;;5.32;1.75;;;4.90;99.90;;;;;;4977791;28;20026;-61
2021/11/05 06:25:30;;;;;;;15.15;1.80;;;4.90;99.90;;;;;;4975287;28;20568;-60
2021/11/05 06:28:21;;;;;;;;;;;;;;;;;;;;;
2021/11/05 06:30:47;;;;;;;10.35;1.65;;;4.90;99.90;;;;;;4981412;28;20030;-60
2021/11/05 06:33:13;;;;;;;5.38;2.15;;;4.90;99.90;;;;;;4983118;28;20031;-61
2021/11/05 06:35:38;;;;;;;2.53;1.77;;;4.90;99.90;;;;;;4975591;28;20038;-61
2021/11/05 06:38:20;;;;;;;7.28;1.70;;;4.90;99.90;;;;;;4983203;28;20061;-60
2021/11/05 06:40:46;;;;;;;3.17;2.30;;;4.90;99.90;;;;;;4973544;28;20046;-60
2021/11/05 06:43:11;;;;;;;9.68;2.28;;;4.80;99.90;;;;;;4974620;28;20058;-61
2021/11/05 06:45:37;;;;;;;8.02;2.00;;;4.80;99.90;;;;;;4984984;28;20084;-61
2021/11/05 06:48:03;;;;;;;3.97;1.95;;;4.90;99.90;;;;;;4990499;28;20459;-61
2021/11/05 06:50:40;;;;;;;5.75;1.98;;;4.90;99.90;;;;;;4957835;28;20042;-61
2021/11/05 06:53:06;;;;;;;2.40;1.85;;;4.90;99.90;;;;;;4973232;28;20038;-60
2021/11/05 06:55:31;;;;;;;5.78;2.13;;;4.90;99.90;;;;;;4975290;28;20035;-60
2021/11/05 06:57:56;;;;;;;6.47;2.22;;;4.90;99.90;;;;;;4987891;28;20102;-61
2021/11/05 07:00:40;;;;;;;6.88;2.17;;;5.00;99.90;;;;;;4977478;28;20042;-60
2021/11/05 07:03:06;;;;;;;2.55;1.70;;;5.00;99.90;;;;;;4974921;28;20023;-60
2021/11/05 07:05:36;;;;;;;2.85;1.70;;;5.00;99.90;;;;;;4988826;28;20423;-61
2021/11/05 07:08:28;;;;;;;3.95;1.38;;;5.00;99.90;;;;;;4974049;28;22139;-61
2021/11/05 07:10:54;;;;;;;4.20;1.55;;;5.00;99.90;;;;;;4979104;28;20035;-61
2021/11/05 07:13:19;;;;;;;2.03;1.27;;;5.10;99.90;;;;;;4985629;28;20030;-60
2021/11/05 07:15:46;;;;;;;1.90;1.58;;;5.10;99.90;;;;;;4979276;28;20113;-61
2021/11/05 07:18:12;;;;;;;3.15;1.98;;;5.20;99.90;;;;;;4978515;28;20049;-61
2021/11/05 07:20:38;;;;;;;3.13;1.63;;;5.20;99.90;;;;;;4975265;28;20483;-60
2021/11/05 07:23:05;;;;;;;3.78;1.60;;;5.30;99.90;;;;;;4969741;28;20085;-61
2021/11/05 07:25:31;;;;;;;2.78;2.00;;;5.30;99.90;;;;;;4975759;28;20455;-60
2021/11/05 07:27:57;;;;;;;3.53;2.10;;;5.40;99.90;;;;;;4987507;28;20116;-61
2021/11/05 07:30:55;;;;;;;;;;;;;;;;;;;;;
2021/11/05 07:43:53;;;;;;;4.43;2.60;;;5.50;99.90;;;;;;4859763;29;20042;-60
2021/11/05 07:46:19;;;;;;;5.47;3.58;;;5.40;99.90;;;;;;4939256;29;20023;-60
2021/11/05 07:48:44;;;;;;;4.30;3.08;;;5.50;99.90;;;;;;4958848;28;20033;-61
2021/11/05 07:51:10;;;;;;;6.82;3.45;;;5.60;99.90;;;;;;4971475;28;20110;-61
2021/11/05 07:53:35;;;;;;;3.65;2.63;;;5.60;99.90;;;;;;4970800;28;20386;-61
2021/11/05 07:56:46;;;;;;;;;;;;;;;;;;;;;
2021/11/05 08:00:01;;;;;;;3.58;2.80;;;5.70;99.90;;;;;;4974620;28;20045;-60
2021/11/05 08:02:27;;;;;;;5.82;2.97;;;5.80;99.90;;;;;;4962153;28;20051;-60
2021/11/05 08:04:52;;;;;;;5.50;3.58;;;5.80;99.90;;;;;;4973988;28;20030;-60
2021/11/05 08:07:21;;;;;;;4.78;3.25;;;5.90;99.90;;;;;;4993108;28;20026;-60
2021/11/05 08:09:47;;;;;;;5.20;2.63;;;5.90;99.90;;;;;;4991152;28;20078;-60
2021/11/05 08:12:12;;;;;;;4.00;2.90;;;6.00;99.90;;;;;;4975450;28;20093;-60
2021/11/05 08:14:39;;;;;;;5.03;3.40;;;6.10;99.90;;;;;;4980343;28;20070;-61
2021/11/05 08:17:05;;;;;;;6.63;3.38;;;6.20;99.90;;;;;;4991749;28;20027;-60
2021/11/05 08:19:30;;;;;;;7.13;4.03;;;6.20;99.90;;;;;;4978985;28;20037;-60
2021/11/05 08:21:56;;;;;;;5.63;3.38;;;6.30;99.90;;;;;;4973019;28;20015;-60
2021/11/05 08:24:40;;;;;;;5.55;3.40;;;6.30;99.90;;;;;;4984211;28;20113;-60
2021/11/05 08:27:05;;;;;;;4.72;3.17;;;6.40;99.90;;;;;;4972504;28;20034;-60
2021/11/05 08:29:31;;;;;;;5.95;3.35;;;6.40;99.90;;;;;;4984302;28;20471;-60
2021/11/05 08:31:57;;;;;;;6.03;3.30;;;6.50;99.90;;;;;;4982014;28;20026;-60
2021/11/05 08:34:40;;;;;;;5.22;3.63;;;6.60;99.90;;;;;;4976419;28;20360;-60
2021/11/05 08:37:37;;;;;;;4.45;3.67;;;6.60;99.90;;;;;;4983749;28;20023;-60
2021/11/05 08:40:05;;;;;;;7.10;4.00;;;6.70;99.90;;;;;;4977326;28;20061;-60
2021/11/05 08:42:30;;;;;;;4.63;3.85;;;6.80;99.90;;;;;;4979093;28;20035;-61
2021/11/05 08:44:56;;;;;;;5.28;3.75;;;6.90;99.90;;;;;;4992660;28;20434;-60
2021/11/05 08:47:36;;;;;;;;;;;;;;;;;;;;;
2021/11/05 08:50:10;;;;;;;4.45;3.50;;;7.00;99.90;;;;;;4977503;28;20034;-60
2021/11/05 08:52:37;;;;;;;9.00;4.15;;;7.10;99.90;;;;;;4989392;28;20085;-60
2021/11/05 08:55:06;;;;;;;7.32;4.40;;;7.20;99.90;;;;;;4983250;28;20558;-60
2021/11/05 08:57:33;;;;;;;7.63;4.28;;;7.30;99.90;;;;;;4986200;28;20042;-60
2021/11/05 08:59:59;;;;;;;4.53;3.75;;;7.40;99.90;;;;;;4964398;28;20056;-60
2021/11/05 09:02:28;;;;;;;4.93;3.30;;;7.40;99.90;;;;;;4985843;28;20039;-60
2021/11/05 09:04:54;;;;;;;5.67;4.00;;;7.50;99.90;;;;;;4974047;28;20494;-60
2021/11/05 09:07:20;;;;;;;4.15;3.58;;;7.60;99.90;;;;;;4979511;28;20030;-60
2021/11/05 09:09:46;;;;;;;4.53;3.70;;;7.80;99.90;;;;;;4977870;28;20038;-60
2021/11/05 09:12:12;;;;;;;7.32;4.00;;;7.80;99.90;;;;;;4994080;28;20053;-60
2021/11/05 09:14:37;;;;;;;6.55;3.05;;;8.00;99.90;;;;;;4966747;28;20076;-60
2021/11/05 09:17:03;;;;;;;4.47;3.28;;;8.10;99.90;;;;;;4979128;28;20493;-60
2021/11/05 09:19:29;;;;;;;6.85;3.45;;;8.20;99.90;;;;;;4976029;28;20098;-60
2021/11/05 09:21:54;;;;;;;5.97;3.45;;;8.30;99.90;;;;;;4991446;28;20157;-60
2021/11/05 09:24:20;;;;;;;5.85;3.45;;;8.30;99.90;;;;;;4960849;28;20149;-60
2021/11/05 09:27:03;;;;;;;4.75;3.67;;;8.50;99.90;;;;;;4975965;28;20081;-61
2021/11/05 09:29:29;;;;;;;6.28;3.55;;;8.50;99.90;;;;;;4980776;28;20057;-60
2021/11/05 09:31:55;;;;;;;3.40;2.72;;;8.60;99.90;;;;;;4981199;28;20332;-61
2021/11/05 09:34:21;;;;;;;5.88;2.85;;;8.70;99.90;;;;;;4975032;28;20483;-60
2021/11/05 09:36:59;;;;;;;;;;;;;;;;;;;;;
2021/11/05 09:39:25;;;;;;;5.38;3.47;;;8.90;99.90;;;;;;4974362;28;20019;-61
2021/11/05 09:41:51;;;;;;;5.85;3.72;;;9.00;99.90;;;;;;4976256;28;20118;-60
2021/11/05 09:44:16;;;;;;;5.57;4.00;;;9.20;99.90;;;;;;4975412;28;20039;-60
2021/11/05 09:46:43;;;;;;;5.53;3.58;;;9.30;99.90;;;;;;4976093;28;20034;-61
2021/11/05 09:49:08;;;;;;;8.05;3.30;;;9.50;99.90;;;;;;4974383;28;20027;-61
2021/11/05 09:51:35;;;;;;;4.78;2.65;;;9.90;99.90;;;;;;4974832;28;20450;-60
2021/11/05 09:54:20;;;;;;;7.57;2.30;;;10.70;99.90;;;;;;4982942;28;20167;-60
2021/11/05 09:56:47;;;;;;;5.03;2.08;;;11.70;99.90;;;;;;4975279;28;20106;-61
2021/11/05 09:59:13;;;;;;;4.20;1.70;;;13.40;99.90;;;;;;4975623;28;20449;-61
2021/11/05 10:01:41;;;;;;;6.50;2.38;;;14.10;99.70;;;;;;4958048;28;20026;-61
2021/11/05 10:04:08;;;;;;;3.58;1.60;;;13.80;99.20;;;;;;4983435;28;20026;-60
2021/11/05 10:06:33;;;;;;;3.90;2.13;;;13.50;99.60;;;;;;4993307;28;20018;-60
2021/11/05 10:08:59;;;;;;;3.10;1.42;;;13.30;99.90;;;;;;4974454;28;20391;-60
2021/11/05 10:11:32;;;;;;;4.60;1.95;;;13.00;99.90;;;;;;4976167;28;20122;-61
2021/11/05 10:14:02;;;;;;;2.72;1.40;;;12.90;99.90;;;;;;4992947;28;20061;-60
2021/11/05 10:16:30;;;;;;;3.13;1.55;;;12.80;99.90;;;;;;4992646;28;20030;-60
2021/11/05 10:21:59;;;;;;;4.78;1.40;;;13.90;99.90;;;;;;4960366;28;20054;-61
2021/11/05 10:24:26;;;;;;;3.83;1.48;;;14.40;99.90;;;;;;4970737;28;20495;-60
2021/11/05 10:26:52;;;;;;;3.83;1.27;;;14.50;99.60;;;;;;4963268;28;20183;-60
2021/11/05 10:29:26;;;;;;;5.25;1.50;;;14.50;99.50;;;;;;4970190;28;20142;-60
2021/11/05 10:32:07;;;;;;;3.28;1.27;;;14.90;99.70;;;;;;4948946;28;20031;-61
2021/11/05 10:35:17;;;;;;;5.43;0.90;;;16.00;99.10;;;;;;4964657;28;20438;-61
2021/11/05 10:37:42;;;;;;;2.88;0.80;;;17.70;97.10;;;;;;4945713;28;20117;-61
2021/11/05 10:40:10;;;;;;;2.58;0.80;;;17.90;95.50;;;;;;4976213;28;20105;-61
2021/11/05 10:42:45;;;;;;;2.95;0.98;;;18.10;94.80;;;;;;4976431;28;20680;-63
2021/11/05 10:45:13;;;;;;;1.92;0.80;;;18.00;93.80;;;;;;4961100;28;20549;-61
2021/11/05 10:47:54;;;;;;;4.35;0.68;;;18.70;93.90;;;;;;4942046;28;20049;-62
2021/11/05 10:50:28;;;;;;;2.65;0.68;;;19.80;92.70;;;;;;4971559;28;20152;-62
2021/11/05 10:53:07;;;;;;;2.75;0.70;;;21.00;91.60;;;;;;4963842;28;20100;-62
2021/11/05 10:56:24;;;;;;;;;;;;;;;;;;;;;
2021/11/05 10:58:50;;;;;;;3.72;0.73;;;22.50;85.10;;;;;;4966151;28;20273;-61
2021/11/05 11:01:19;;;;;;;2.00;0.70;;;22.40;83.50;;;;;;4983883;28;20125;-62
2021/11/05 11:03:45;;;;;;;;;;;22.80;81.30;;;;;;4977429;28;20015;-62
2021/11/05 11:06:23;;;;;;;;;;;;;;;;;;;;;
2021/11/05 11:12:32;;;;;;;3.45;0.70;;;25.10;73.20;;;;;;4894884;29;20088;-61
2021/11/05 11:14:57;;;;;;;1.88;0.52;;;24.50;70.50;;;;;;4930884;29;20114;-61
2021/11/05 11:17:45;;;;;;;1.90;0.70;;;23.50;71.30;;;;;;4965971;28;20568;-62
2021/11/05 11:20:29;;;;;;;4.25;1.70;;;22.50;72.00;;;;;;4973324;28;20053;-61
2021/11/05 11:22:55;;;;;;;2.00;0.70;;;21.50;73.10;;;;;;4978474;28;20358;-62
2021/11/05 11:25:20;;;;;;;4.93;0.75;;;21.60;74.90;;;;;;4979666;28;20490;-62
2021/11/05 11:27:46;;;;;;;3.28;0.73;;;23.60;72.30;;;;;;4979478;28;20030;-62
2021/11/05 11:30:11;;;;;;;1.92;0.75;;;25.60;67.20;;;;;;4981662;28;20437;-62
2021/11/05 11:32:37;;;;;;;2.83;0.60;;;26.10;64.00;;;;;;4980628;28;20106;-62
2021/11/05 11:35:03;;;;;;;3.30;0.82;;;26.80;62.10;;;;;;4977206;28;20031;-62
2021/11/05 11:37:31;;;;;;;2.80;0.73;;;27.20;60.30;;;;;;4973677;28;20038;-62
2021/11/05 11:39:56;;;;;;;2.50;0.70;;;26.90;59.80;;;;;;4978899;28;20014;-62
2021/11/05 11:42:23;;;;;;;3.20;0.90;;;26.20;59.60;;;;;;4986861;28;20049;-62
2021/11/05 11:44:49;;;;;;;3.03;0.70;;;25.20;60.30;;;;;;4980681;28;20084;-62
2021/11/05 11:47:15;;;;;;;2.50;0.60;;;24.20;61.30;;;;;;4990098;28;20038;-62
2021/11/05 11:49:40;;;;;;;2.95;0.60;;;23.40;62.60;;;;;;4973150;28;20474;-62
2021/11/05 11:52:36;;;;;;;2.53;0.60;;;22.60;63.70;;;;;;4971439;28;20043;-62
2021/11/05 12:09:39;;;;;;;3.35;0.60;;;22.00;63.50;;;;;;4760141;29;20447;-62
2021/11/05 12:12:19;;;;;;;4.60;0.70;;;21.60;63.80;;;;;;4879030;28;20114;-62
2021/11/05 12:18:33;;;;;;;2.58;0.60;;;21.70;63.20;;;;;;4948970;28;20069;-62
2021/11/05 12:21:17;;;;;;;4.03;0.57;;;21.40;63.70;;;;;;4968609;28;20115;-62
2021/11/05 12:23:43;;;;;;;4.28;0.82;;;20.90;64.90;;;;;;4972814;28;20365;-62
2021/11/05 12:26:08;;;;;;;2.83;0.32;;;20.40;65.90;;;;;;4973373;28;20509;-62
2021/11/05 12:29:06;;;;;;;2.38;0.50;;;20.10;67.10;;;;;;4974386;28;20039;-61
2021/11/05 12:31:35;;;;;;;2.72;0.60;;;19.90;67.80;;;;;;4970983;28;20023;-62
2021/11/05 12:34:50;;;;;;;;;;;;;;;;;;;;;
2021/11/05 12:37:30;;;;;;;2.72;0.82;;;19.60;68.40;;;;;;4970857;28;20043;-63
2021/11/05 12:40:22;;;;;;;3.58;0.90;;;19.40;69.00;;;;;;4986362;28;20097;-61
2021/11/05 12:42:53;;;;;;;2.95;0.60;;;19.20;69.30;;;;;;4974757;28;20475;-61
2021/11/05 12:45:42;;;;;;;3.08;0.45;;;18.90;70.10;;;;;;4972694;28;20061;-61
2021/11/05 12:48:09;;;;;;;2.25;0.57;;;18.60;70.60;;;;;;4972870;28;20150;-62
2021/11/05 12:50:35;;;;;;;2.15;0.63;;;18.20;71.50;;;;;;4984310;28;20058;-61
2021/11/05 12:53:05;;;;;;;6.03;0.50;;;18.00;72.10;;;;;;4972807;28;20030;-61
2021/11/05 12:55:36;;;;;;;3.28;0.57;;;17.80;72.80;;;;;;4979560;28;20037;-61
2021/11/05 12:58:36;;;;;;;;;;;;;;;;;;;;;
2021/11/05 13:03:31;;;;;;;1.48;0.40;;;17.00;75.10;;;;;;4962250;28;20049;-61
2021/11/05 13:06:00;;;;;;;2.33;0.40;;;16.90;75.60;;;;;;4962747;28;20038;-61
2021/11/05 13:08:35;;;;;;;0.85;0.40;;;16.90;75.80;;;;;;4991268;28;20429;-62
2021/11/05 13:11:08;;;;;;;2.10;0.30;;;16.80;75.90;;;;;;4974769;28;20431;-61
2021/11/05 13:13:52;;;;;;;1.55;0.60;;;16.70;76.30;;;;;;4991634;28;20030;-61
2021/11/05 13:16:18;;;;;;;3.90;0.40;;;16.60;76.90;;;;;;4974361;28;20027;-61
2021/11/05 13:19:02;;;;;;;2.53;0.40;;;16.50;76.80;;;;;;4991532;28;20920;-61
2021/11/05 13:21:28;;;;;;;1.70;0.43;;;16.60;76.70;;;;;;4974673;28;20037;-62
2021/11/05 13:23:53;;;;;;;2.70;0.50;;;16.60;76.50;;;;;;4994912;28;20105;-62
2021/11/05 13:26:32;;;;;;;2.05;0.40;;;16.80;76.30;;;;;;4995636;28;20057;-61
2021/11/05 13:28:57;;;;;;;1.60;0.85;;;17.00;76.00;;;;;;4995671;28;20042;-61
2021/11/05 13:31:23;;;;;;;0.88;0.40;;;17.30;76.10;;;;;;4995291;28;20541;-61
2021/11/05 13:33:51;;;;;;;1.08;0.47;;;18.50;74.90;;;;;;4995074;28;20030;-61
2021/11/05 13:36:17;;;;;;;2.22;0.43;;;19.60;73.00;;;;;;4995249;28;20482;-61
2021/11/05 13:38:46;;;;;;;2.45;0.50;;;20.90;70.70;;;;;;4995173;28;20022;-62
2021/11/05 13:41:47;;;;;;;0.77;0.40;;;21.90;68.00;;;;;;4995304;28;20022;-62
2021/11/05 13:45:16;;;;;;;1.90;0.43;;;21.90;66.50;;;;;;4976185;28;20026;-62
2021/11/05 13:47:22;;;;;;;;;;;21.80;66.70;;;;;;4955957;28;20098;-62
2021/11/05 13:50:04;;;;;;;2.55;0.60;;;21.50;66.90;;;;;;4993722;28;20288;-62
2021/11/05 13:52:52;;;;;;;4.45;0.85;;;21.20;67.10;;;;;;4993436;28;20376;-62
2021/11/05 13:55:33;;;;;;;1.35;0.50;;;20.80;66.80;;;;;;4993660;28;20022;-62